sensor_id;sensor_type;location;lat;lon;timestamp;temperature;humidity
61591;DHT22;71994;52.410;-1.966;2023-10-13T00:00:37;17.60;64.00
61591;DHT22;71994;52.410;-1.966;2023-10-13T00:03:43;17.60;63.90
61591;DHT22;71994;52.410;-1.966;2023-10-13T00:06:51;17.60;63.80
61591;DHT22;71994;52.410;-1.966;2023-10-13T00:10:02;17.60;63.80
61591;DHT22;71994;52.410;-1.966;2023-10-13T00:13:10;17.60;63.80
61591;DHT22;71994;52.410;-1.966;2023-10-13T00:16:22;17.60;63.90
61591;DHT22;71994;52.410;-1.966;2023-10-13T00:19:34;17.60;63.90
61591;DHT22;71994;52.410;-1.966;2023-10-13T00:22:50;17.60;63.90
61591;DHT22;71994;52.410;-1.966;2023-10-13T00:26:03;17.60;63.90
61591;DHT22;71994;52.410;-1.966;2023-10-13T00:29:12;17.60;63.90
61591;DHT22;71994;52.410;-1.966;2023-10-13T00:32:21;17.60;63.90
61591;DHT22;71994;52.410;-1.966;2023-10-13T00:35:30;17.60;63.90
61591;DHT22;71994;52.410;-1.966;2023-10-13T00:38:45;17.60;64.00
61591;DHT22;71994;52.410;-1.966;2023-10-13T00:41:57;17.60;64.00
61591;DHT22;71994;52.410;-1.966;2023-10-13T00:45:10;17.60;64.00
61591;DHT22;71994;52.410;-1.966;2023-10-13T00:48:20;17.50;64.10
61591;DHT22;71994;52.410;-1.966;2023-10-13T00:51:27;17.50;64.10
61591;DHT22;71994;52.410;-1.966;2023-10-13T00:54:44;17.50;64.20
61591;DHT22;71994;52.410;-1.966;2023-10-13T00:57:56;17.60;64.10
61591;DHT22;71994;52.410;-1.966;2023-10-13T01:01:02;17.50;64.20
61591;DHT22;71994;52.410;-1.966;2023-10-13T01:04:31;17.50;64.20
61591;DHT22;71994;52.410;-1.966;2023-10-13T01:07:38;17.50;64.20
61591;DHT22;71994;52.410;-1.966;2023-10-13T01:10:46;17.50;64.20
61591;DHT22;71994;52.410;-1.966;2023-10-13T01:13:52;17.50;64.30
61591;DHT22;71994;52.410;-1.966;2023-10-13T01:17:00;17.50;64.20
61591;DHT22;71994;52.410;-1.966;2023-10-13T01:20:10;17.50;64.30
61591;DHT22;71994;52.410;-1.966;2023-10-13T01:23:18;17.50;64.40
61591;DHT22;71994;52.410;-1.966;2023-10-13T01:26:27;17.50;64.40
61591;DHT22;71994;52.410;-1.966;2023-10-13T01:29:36;17.50;64.30
61591;DHT22;71994;52.410;-1.966;2023-10-13T01:32:39;17.60;64.40
61591;DHT22;71994;52.410;-1.966;2023-10-13T01:35:48;17.60;64.30
61591;DHT22;71994;52.410;-1.966;2023-10-13T01:38:58;17.50;64.30
61591;DHT22;71994;52.410;-1.966;2023-10-13T01:42:05;17.50;64.40
61591;DHT22;71994;52.410;-1.966;2023-10-13T01:45:09;17.50;64.40
61591;DHT22;71994;52.410;-1.966;2023-10-13T01:48:17;17.50;64.50
61591;DHT22;71994;52.410;-1.966;2023-10-13T01:51:24;17.50;64.50
61591;DHT22;71994;52.410;-1.966;2023-10-13T01:54:35;17.50;64.50
61591;DHT22;71994;52.410;-1.966;2023-10-13T01:57:38;17.50;64.50
61591;DHT22;71994;52.410;-1.966;2023-10-13T02:00:50;17.50;64.50
61591;DHT22;71994;52.410;-1.966;2023-10-13T02:03:55;17.50;64.50
61591;DHT22;71994;52.410;-1.966;2023-10-13T02:07:07;17.50;64.60
61591;DHT22;71994;52.410;-1.966;2023-10-13T02:10:21;17.50;64.50
61591;DHT22;71994;52.410;-1.966;2023-10-13T02:13:26;17.50;64.60
61591;DHT22;71994;52.410;-1.966;2023-10-13T02:16:33;17.50;64.70
61591;DHT22;71994;52.410;-1.966;2023-10-13T02:19:40;17.50;64.70
61591;DHT22;71994;52.410;-1.966;2023-10-13T02:22:48;17.50;64.70
61591;DHT22;71994;52.410;-1.966;2023-10-13T02:25:59;17.50;64.80
61591;DHT22;71994;52.410;-1.966;2023-10-13T02:29:14;17.50;64.90
61591;DHT22;71994;52.410;-1.966;2023-10-13T02:32:22;17.50;64.90
61591;DHT22;71994;52.410;-1.966;2023-10-13T02:35:29;17.50;65.00
61591;DHT22;71994;52.410;-1.966;2023-10-13T02:38:47;17.50;65.00
61591;DHT22;71994;52.410;-1.966;2023-10-13T02:41:58;17.40;65.00
61591;DHT22;71994;52.410;-1.966;2023-10-13T02:45:02;17.50;65.00
61591;DHT22;71994;52.410;-1.966;2023-10-13T02:48:10;17.50;65.10
61591;DHT22;71994;52.410;-1.966;2023-10-13T02:51:20;17.50;65.10
61591;DHT22;71994;52.410;-1.966;2023-10-13T02:54:33;17.40;65.10
61591;DHT22;71994;52.410;-1.966;2023-10-13T02:57:45;17.40;65.20
61591;DHT22;71994;52.410;-1.966;2023-10-13T03:00:52;17.50;65.20
61591;DHT22;71994;52.410;-1.966;2023-10-13T03:03:55;17.40;65.20
61591;DHT22;71994;52.410;-1.966;2023-10-13T03:07:02;17.40;65.20
61591;DHT22;71994;52.410;-1.966;2023-10-13T03:10:09;17.40;65.30
61591;DHT22;71994;52.410;-1.966;2023-10-13T03:13:16;17.40;65.20
61591;DHT22;71994;52.410;-1.966;2023-10-13T03:16:22;17.40;65.20
61591;DHT22;71994;52.410;-1.966;2023-10-13T03:19:31;17.40;65.20
61591;DHT22;71994;52.410;-1.966;2023-10-13T03:22:40;17.50;65.20
61591;DHT22;71994;52.410;-1.966;2023-10-13T03:25:48;17.40;65.20
61591;DHT22;71994;52.410;-1.966;2023-10-13T03:29:01;17.40;65.20
61591;DHT22;71994;52.410;-1.966;2023-10-13T03:32:12;17.40;65.20
61591;DHT22;71994;52.410;-1.966;2023-10-13T03:35:19;17.40;65.20
61591;DHT22;71994;52.410;-1.966;2023-10-13T03:38:27;17.50;65.30
61591;DHT22;71994;52.410;-1.966;2023-10-13T03:41:33;17.40;65.20
61591;DHT22;71994;52.410;-1.966;2023-10-13T03:44:44;17.40;65.20
61591;DHT22;71994;52.410;-1.966;2023-10-13T03:47:52;17.50;65.20
61591;DHT22;71994;52.410;-1.966;2023-10-13T03:51:00;17.40;65.20
61591;DHT22;71994;52.410;-1.966;2023-10-13T03:54:10;17.50;65.20
61591;DHT22;71994;52.410;-1.966;2023-10-13T03:57:18;17.40;65.20
61591;DHT22;71994;52.410;-1.966;2023-10-13T04:00:31;17.50;65.20
61591;DHT22;71994;52.410;-1.966;2023-10-13T04:03:39;17.50;65.20
61591;DHT22;71994;52.410;-1.966;2023-10-13T04:07:00;17.40;65.30
61591;DHT22;71994;52.410;-1.966;2023-10-13T04:10:18;17.40;65.30
61591;DHT22;71994;52.410;-1.966;2023-10-13T04:13:37;17.40;65.20
61591;DHT22;71994;52.410;-1.966;2023-10-13T04:17:12;17.40;65.30
61591;DHT22;71994;52.410;-1.966;2023-10-13T04:20:25;17.40;65.30
61591;DHT22;71994;52.410;-1.966;2023-10-13T04:23:41;17.40;65.30
61591;DHT22;71994;52.410;-1.966;2023-10-13T04:26:59;17.40;65.30
61591;DHT22;71994;52.410;-1.966;2023-10-13T04:30:18;17.40;65.40
61591;DHT22;71994;52.410;-1.966;2023-10-13T04:33:33;17.40;65.40
61591;DHT22;71994;52.410;-1.966;2023-10-13T04:36:47;17.40;65.40
61591;DHT22;71994;52.410;-1.966;2023-10-13T04:40:04;17.40;65.40
61591;DHT22;71994;52.410;-1.966;2023-10-13T04:43:15;17.40;65.50
61591;DHT22;71994;52.410;-1.966;2023-10-13T04:46:36;17.40;65.50
61591;DHT22;71994;52.410;-1.966;2023-10-13T04:49:59;17.40;65.40
61591;DHT22;71994;52.410;-1.966;2023-10-13T04:53:24;17.40;65.50
61591;DHT22;71994;52.410;-1.966;2023-10-13T04:56:33;17.40;65.50
61591;DHT22;71994;52.410;-1.966;2023-10-13T05:00:04;17.40;65.60
61591;DHT22;71994;52.410;-1.966;2023-10-13T05:03:34;17.40;65.60
61591;DHT22;71994;52.410;-1.966;2023-10-13T05:07:14;17.30;65.90
61591;DHT22;71994;52.410;-1.966;2023-10-13T05:10:37;17.30;65.90
61591;DHT22;71994;52.410;-1.966;2023-10-13T05:13:55;17.30;65.90
61591;DHT22;71994;52.410;-1.966;2023-10-13T05:17:17;17.30;65.90
61591;DHT22;71994;52.410;-1.966;2023-10-13T05:20:39;17.40;66.00
61591;DHT22;71994;52.410;-1.966;2023-10-13T05:24:04;17.30;66.00
61591;DHT22;71994;52.410;-1.966;2023-10-13T05:27:27;17.30;66.00
61591;DHT22;71994;52.410;-1.966;2023-10-13T05:30:48;17.30;66.00
61591;DHT22;71994;52.410;-1.966;2023-10-13T05:34:10;17.30;66.10
61591;DHT22;71994;52.410;-1.966;2023-10-13T05:37:35;17.30;66.10
61591;DHT22;71994;52.410;-1.966;2023-10-13T05:41:01;17.30;66.10
61591;DHT22;71994;52.410;-1.966;2023-10-13T05:44:25;17.30;66.20
61591;DHT22;71994;52.410;-1.966;2023-10-13T05:47:59;17.30;66.20
61591;DHT22;71994;52.410;-1.966;2023-10-13T05:51:20;17.30;66.20
61591;DHT22;71994;52.410;-1.966;2023-10-13T05:54:47;17.30;66.40
61591;DHT22;71994;52.410;-1.966;2023-10-13T05:58:12;17.30;66.30
61591;DHT22;71994;52.410;-1.966;2023-10-13T06:01:37;17.40;66.40
61591;DHT22;71994;52.410;-1.966;2023-10-13T06:05:09;17.40;66.50
61591;DHT22;71994;52.410;-1.966;2023-10-13T06:08:28;17.40;66.50
61591;DHT22;71994;52.410;-1.966;2023-10-13T06:11:49;17.30;66.50
61591;DHT22;71994;52.410;-1.966;2023-10-13T06:15:14;17.30;66.60
61591;DHT22;71994;52.410;-1.966;2023-10-13T06:18:39;17.40;66.60
61591;DHT22;71994;52.410;-1.966;2023-10-13T06:22:00;17.40;66.70
61591;DHT22;71994;52.410;-1.966;2023-10-13T06:25:19;17.40;66.70
61591;DHT22;71994;52.410;-1.966;2023-10-13T06:28:41;17.40;66.70
61591;DHT22;71994;52.410;-1.966;2023-10-13T06:31:51;17.40;66.90
61591;DHT22;71994;52.410;-1.966;2023-10-13T06:35:00;17.40;66.80
61591;DHT22;71994;52.410;-1.966;2023-10-13T06:38:10;17.30;66.90
61591;DHT22;71994;52.410;-1.966;2023-10-13T06:41:24;17.40;67.00
61591;DHT22;71994;52.410;-1.966;2023-10-13T06:44:36;17.40;66.90
61591;DHT22;71994;52.410;-1.966;2023-10-13T06:47:45;17.40;67.00
61591;DHT22;71994;52.410;-1.966;2023-10-13T06:50:56;17.40;67.20
61591;DHT22;71994;52.410;-1.966;2023-10-13T06:54:07;17.40;67.10
61591;DHT22;71994;52.410;-1.966;2023-10-13T06:57:23;17.40;67.30
61591;DHT22;71994;52.410;-1.966;2023-10-13T07:00:38;17.40;67.40
61591;DHT22;71994;52.410;-1.966;2023-10-13T07:03:58;17.30;67.50
61591;DHT22;71994;52.410;-1.966;2023-10-13T07:07:07;17.40;67.60
61591;DHT22;71994;52.410;-1.966;2023-10-13T07:10:26;17.40;67.70
61591;DHT22;71994;52.410;-1.966;2023-10-13T07:13:47;17.40;67.60
61591;DHT22;71994;52.410;-1.966;2023-10-13T07:16:57;17.40;67.50
61591;DHT22;71994;52.410;-1.966;2023-10-13T07:20:08;17.40;67.70
61591;DHT22;71994;52.410;-1.966;2023-10-13T07:23:27;17.40;67.80
61591;DHT22;71994;52.410;-1.966;2023-10-13T07:26:34;17.40;67.80
61591;DHT22;71994;52.410;-1.966;2023-10-13T07:29:45;17.40;67.60
61591;DHT22;71994;52.410;-1.966;2023-10-13T07:32:57;17.40;67.60
61591;DHT22;71994;52.410;-1.966;2023-10-13T07:36:22;17.40;67.50
61591;DHT22;71994;52.410;-1.966;2023-10-13T07:39:31;17.40;67.50
61591;DHT22;71994;52.410;-1.966;2023-10-13T07:42:42;17.40;67.80
61591;DHT22;71994;52.410;-1.966;2023-10-13T07:45:49;17.50;67.90
61591;DHT22;71994;52.410;-1.966;2023-10-13T07:49:01;17.50;67.90
61591;DHT22;71994;52.410;-1.966;2023-10-13T07:52:21;17.50;67.90
61591;DHT22;71994;52.410;-1.966;2023-10-13T07:55:54;17.50;67.80
61591;DHT22;71994;52.410;-1.966;2023-10-13T07:59:07;17.60;67.80
61591;DHT22;71994;52.410;-1.966;2023-10-13T08:02:15;17.60;68.10
61591;DHT22;71994;52.410;-1.966;2023-10-13T08:05:44;17.60;68.10
61591;DHT22;71994;52.410;-1.966;2023-10-13T08:09:10;17.60;68.20
61591;DHT22;71994;52.410;-1.966;2023-10-13T08:12:33;17.60;68.20
61591;DHT22;71994;52.410;-1.966;2023-10-13T08:15:40;17.60;68.10
61591;DHT22;71994;52.410;-1.966;2023-10-13T08:18:59;17.60;68.20
61591;DHT22;71994;52.410;-1.966;2023-10-13T08:22:11;17.60;68.10
61591;DHT22;71994;52.410;-1.966;2023-10-13T08:25:32;17.60;68.30
61591;DHT22;71994;52.410;-1.966;2023-10-13T08:29:03;17.60;68.20
61591;DHT22;71994;52.410;-1.966;2023-10-13T08:32:29;17.50;68.40
61591;DHT22;71994;52.410;-1.966;2023-10-13T08:35:57;17.60;68.40
61591;DHT22;71994;52.410;-1.966;2023-10-13T08:39:16;17.50;68.40
61591;DHT22;71994;52.410;-1.966;2023-10-13T08:42:51;17.50;68.40
61591;DHT22;71994;52.410;-1.966;2023-10-13T08:46:14;17.50;68.50
61591;DHT22;71994;52.410;-1.966;2023-10-13T08:49:34;17.50;68.50
61591;DHT22;71994;52.410;-1.966;2023-10-13T08:52:54;17.50;68.50
61591;DHT22;71994;52.410;-1.966;2023-10-13T08:56:03;17.50;68.40
61591;DHT22;71994;52.410;-1.966;2023-10-13T08:59:20;17.50;68.50
61591;DHT22;71994;52.410;-1.966;2023-10-13T09:02:26;17.50;68.60
61591;DHT22;71994;52.410;-1.966;2023-10-13T09:05:45;17.50;68.50
61591;DHT22;71994;52.410;-1.966;2023-10-13T09:09:06;17.50;68.60
61591;DHT22;71994;52.410;-1.966;2023-10-13T09:12:32;17.50;68.40
61591;DHT22;71994;52.410;-1.966;2023-10-13T09:15:45;17.50;68.40
61591;DHT22;71994;52.410;-1.966;2023-10-13T09:19:07;17.50;68.50
61591;DHT22;71994;52.410;-1.966;2023-10-13T09:22:21;17.60;68.60
61591;DHT22;71994;52.410;-1.966;2023-10-13T09:25:32;17.60;68.70
61591;DHT22;71994;52.410;-1.966;2023-10-13T09:28:39;17.60;68.40
61591;DHT22;71994;52.410;-1.966;2023-10-13T09:31:46;17.60;68.30
61591;DHT22;71994;52.410;-1.966;2023-10-13T09:35:00;17.60;68.20
61591;DHT22;71994;52.410;-1.966;2023-10-13T09:38:07;17.60;68.40
61591;DHT22;71994;52.410;-1.966;2023-10-13T09:41:15;17.60;68.40
61591;DHT22;71994;52.410;-1.966;2023-10-13T09:44:21;17.60;68.30
61591;DHT22;71994;52.410;-1.966;2023-10-13T09:47:33;17.60;68.50
61591;DHT22;71994;52.410;-1.966;2023-10-13T09:50:46;17.60;68.80
61591;DHT22;71994;52.410;-1.966;2023-10-13T09:53:58;17.60;68.90
61591;DHT22;71994;52.410;-1.966;2023-10-13T09:57:13;17.60;68.70
61591;DHT22;71994;52.410;-1.966;2023-10-13T10:00:23;17.70;68.70
61591;DHT22;71994;52.410;-1.966;2023-10-13T10:03:50;17.60;68.60
61591;DHT22;71994;52.410;-1.966;2023-10-13T10:07:10;17.70;68.60
61591;DHT22;71994;52.410;-1.966;2023-10-13T10:10:23;17.60;68.60
61591;DHT22;71994;52.410;-1.966;2023-10-13T10:13:38;17.60;68.80
61591;DHT22;71994;52.410;-1.966;2023-10-13T10:16:53;17.60;68.60
61591;DHT22;71994;52.410;-1.966;2023-10-13T10:20:06;17.60;68.80
61591;DHT22;71994;52.410;-1.966;2023-10-13T10:23:24;17.60;68.70
61591;DHT22;71994;52.410;-1.966;2023-10-13T10:26:31;17.60;68.80
61591;DHT22;71994;52.410;-1.966;2023-10-13T10:29:38;17.60;68.80
61591;DHT22;71994;52.410;-1.966;2023-10-13T10:32:44;17.70;68.80
61591;DHT22;71994;52.410;-1.966;2023-10-13T10:36:01;17.70;68.80
61591;DHT22;71994;52.410;-1.966;2023-10-13T10:39:08;17.70;68.70
61591;DHT22;71994;52.410;-1.966;2023-10-13T10:42:15;17.70;68.80
61591;DHT22;71994;52.410;-1.966;2023-10-13T10:45:26;17.70;69.30
61591;DHT22;71994;52.410;-1.966;2023-10-13T10:48:35;17.70;69.10
61591;DHT22;71994;52.410;-1.966;2023-10-13T10:51:49;17.70;69.40
61591;DHT22;71994;52.410;-1.966;2023-10-13T10:54:59;17.70;69.20
61591;DHT22;71994;52.410;-1.966;2023-10-13T10:58:09;17.70;69.10
61591;DHT22;71994;52.410;-1.966;2023-10-13T11:01:32;17.80;69.00
61591;DHT22;71994;52.410;-1.966;2023-10-13T11:04:51;17.70;69.10
61591;DHT22;71994;52.410;-1.966;2023-10-13T11:08:02;17.70;69.10
61591;DHT22;71994;52.410;-1.966;2023-10-13T11:11:12;17.70;69.20
61591;DHT22;71994;52.410;-1.966;2023-10-13T11:14:21;17.70;69.50
61591;DHT22;71994;52.410;-1.966;2023-10-13T11:17:31;17.70;69.60
61591;DHT22;71994;52.410;-1.966;2023-10-13T11:20:46;17.70;69.80
61591;DHT22;71994;52.410;-1.966;2023-10-13T11:24:00;17.70;69.70
61591;DHT22;71994;52.410;-1.966;2023-10-13T11:27:15;17.70;69.80
61591;DHT22;71994;52.410;-1.966;2023-10-13T11:30:42;17.70;70.00
61591;DHT22;71994;52.410;-1.966;2023-10-13T11:33:52;17.80;70.10
61591;DHT22;71994;52.410;-1.966;2023-10-13T11:36:59;17.80;70.20
61591;DHT22;71994;52.410;-1.966;2023-10-13T11:40:30;17.80;70.30
61591;DHT22;71994;52.410;-1.966;2023-10-13T11:44:10;17.80;70.20
61591;DHT22;71994;52.410;-1.966;2023-10-13T11:47:26;17.80;70.30
61591;DHT22;71994;52.410;-1.966;2023-10-13T11:50:50;17.80;70.40
61591;DHT22;71994;52.410;-1.966;2023-10-13T11:53:57;17.80;70.50
61591;DHT22;71994;52.410;-1.966;2023-10-13T11:57:09;17.80;70.50
61591;DHT22;71994;52.410;-1.966;2023-10-13T12:00:17;17.80;70.60
61591;DHT22;71994;52.410;-1.966;2023-10-13T12:03:50;17.80;70.50
61591;DHT22;71994;52.410;-1.966;2023-10-13T12:07:12;17.80;70.40
61591;DHT22;71994;52.410;-1.966;2023-10-13T12:10:23;17.90;70.50
61591;DHT22;71994;52.410;-1.966;2023-10-13T12:13:55;17.90;70.70
61591;DHT22;71994;52.410;-1.966;2023-10-13T12:17:01;17.90;70.40
61591;DHT22;71994;52.410;-1.966;2023-10-13T12:20:13;17.80;70.80
61591;DHT22;71994;52.410;-1.966;2023-10-13T12:23:35;17.80;70.70
61591;DHT22;71994;52.410;-1.966;2023-10-13T12:26:42;17.80;70.70
61591;DHT22;71994;52.410;-1.966;2023-10-13T12:29:52;17.80;70.70
61591;DHT22;71994;52.410;-1.966;2023-10-13T12:32:59;17.70;70.70
61591;DHT22;71994;52.410;-1.966;2023-10-13T12:36:11;17.70;70.60
61591;DHT22;71994;52.410;-1.966;2023-10-13T12:39:34;17.70;70.70
61591;DHT22;71994;52.410;-1.966;2023-10-13T12:42:56;17.70;70.70
61591;DHT22;71994;52.410;-1.966;2023-10-13T12:46:21;17.70;70.60
61591;DHT22;71994;52.410;-1.966;2023-10-13T12:49:43;17.70;70.60
61591;DHT22;71994;52.410;-1.966;2023-10-13T12:53:01;17.70;70.50
61591;DHT22;71994;52.410;-1.966;2023-10-13T12:56:07;17.70;70.40
61591;DHT22;71994;52.410;-1.966;2023-10-13T12:59:14;17.80;70.40
61591;DHT22;71994;52.410;-1.966;2023-10-13T13:02:26;17.70;70.30
61591;DHT22;71994;52.410;-1.966;2023-10-13T13:05:32;17.80;70.50
61591;DHT22;71994;52.410;-1.966;2023-10-13T13:08:47;17.80;70.30
61591;DHT22;71994;52.410;-1.966;2023-10-13T13:11:54;17.80;70.40
61591;DHT22;71994;52.410;-1.966;2023-10-13T13:15:01;17.80;70.40
61591;DHT22;71994;52.410;-1.966;2023-10-13T13:18:14;17.80;70.90
61591;DHT22;71994;52.410;-1.966;2023-10-13T13:21:24;17.80;70.50
61591;DHT22;71994;52.410;-1.966;2023-10-13T13:24:31;17.70;70.50
61591;DHT22;71994;52.410;-1.966;2023-10-13T13:27:37;17.70;70.60
61591;DHT22;71994;52.410;-1.966;2023-10-13T13:30:45;17.80;70.70
61591;DHT22;71994;52.410;-1.966;2023-10-13T13:33:56;17.70;70.60
61591;DHT22;71994;52.410;-1.966;2023-10-13T13:37:02;17.70;70.50
61591;DHT22;71994;52.410;-1.966;2023-10-13T13:40:10;17.70;70.70
61591;DHT22;71994;52.410;-1.966;2023-10-13T13:43:24;17.70;70.70
61591;DHT22;71994;52.410;-1.966;2023-10-13T13:46:45;17.70;70.70
61591;DHT22;71994;52.410;-1.966;2023-10-13T13:50:01;17.70;70.60
61591;DHT22;71994;52.410;-1.966;2023-10-13T13:53:10;17.70;70.70
61591;DHT22;71994;52.410;-1.966;2023-10-13T13:56:30;17.70;70.70
61591;DHT22;71994;52.410;-1.966;2023-10-13T13:59:41;17.70;70.70
61591;DHT22;71994;52.410;-1.966;2023-10-13T14:02:51;17.60;70.90
61591;DHT22;71994;52.410;-1.966;2023-10-13T14:06:03;17.60;70.70
61591;DHT22;71994;52.410;-1.966;2023-10-13T14:09:11;17.70;71.20
61591;DHT22;71994;52.410;-1.966;2023-10-13T14:12:38;17.60;70.70
61591;DHT22;71994;52.410;-1.966;2023-10-13T14:15:45;17.60;70.70
61591;DHT22;71994;52.410;-1.966;2023-10-13T14:18:53;17.60;70.60
61591;DHT22;71994;52.410;-1.966;2023-10-13T14:22:03;17.70;70.80
61591;DHT22;71994;52.410;-1.966;2023-10-13T14:25:15;17.70;70.70
61591;DHT22;71994;52.410;-1.966;2023-10-13T14:28:21;17.60;70.70
61591;DHT22;71994;52.410;-1.966;2023-10-13T14:31:37;17.60;70.70
61591;DHT22;71994;52.410;-1.966;2023-10-13T14:34:47;17.60;70.70
61591;DHT22;71994;52.410;-1.966;2023-10-13T14:38:03;17.60;70.70
61591;DHT22;71994;52.410;-1.966;2023-10-13T14:41:10;17.70;70.70
61591;DHT22;71994;52.410;-1.966;2023-10-13T14:44:18;17.60;70.70
61591;DHT22;71994;52.410;-1.966;2023-10-13T14:47:29;17.60;70.60
61591;DHT22;71994;52.410;-1.966;2023-10-13T14:50:39;17.60;70.60
61591;DHT22;71994;52.410;-1.966;2023-10-13T14:53:51;17.60;70.60
61591;DHT22;71994;52.410;-1.966;2023-10-13T14:57:00;17.60;70.50
61591;DHT22;71994;52.410;-1.966;2023-10-13T15:00:08;17.60;70.50
61591;DHT22;71994;52.410;-1.966;2023-10-13T15:03:16;17.60;70.50
61591;DHT22;71994;52.410;-1.966;2023-10-13T15:06:27;17.60;70.40
61591;DHT22;71994;52.410;-1.966;2023-10-13T15:09:40;17.60;70.50
61591;DHT22;71994;52.410;-1.966;2023-10-13T15:12:48;17.60;70.40
61591;DHT22;71994;52.410;-1.966;2023-10-13T15:15:55;17.60;70.40
61591;DHT22;71994;52.410;-1.966;2023-10-13T15:19:01;17.60;70.40
61591;DHT22;71994;52.410;-1.966;2023-10-13T15:22:10;17.60;70.30
61591;DHT22;71994;52.410;-1.966;2023-10-13T15:25:22;17.60;70.20
61591;DHT22;71994;52.410;-1.966;2023-10-13T15:28:31;17.60;70.30
61591;DHT22;71994;52.410;-1.966;2023-10-13T15:31:43;17.60;70.50
61591;DHT22;71994;52.410;-1.966;2023-10-13T15:35:08;17.60;70.30
61591;DHT22;71994;52.410;-1.966;2023-10-13T15:38:15;17.60;70.30
61591;DHT22;71994;52.410;-1.966;2023-10-13T15:41:29;17.60;70.20
61591;DHT22;71994;52.410;-1.966;2023-10-13T15:44:38;17.60;70.20
61591;DHT22;71994;52.410;-1.966;2023-10-13T15:47:46;17.60;70.20
61591;DHT22;71994;52.410;-1.966;2023-10-13T15:50:53;17.60;70.20
61591;DHT22;71994;52.410;-1.966;2023-10-13T15:53:59;17.60;70.20
61591;DHT22;71994;52.410;-1.966;2023-10-13T15:57:08;17.60;70.20
61591;DHT22;71994;52.410;-1.966;2023-10-13T16:00:22;17.60;70.30
61591;DHT22;71994;52.410;-1.966;2023-10-13T16:03:29;17.60;70.30
61591;DHT22;71994;52.410;-1.966;2023-10-13T16:06:35;17.60;70.20
61591;DHT22;71994;52.410;-1.966;2023-10-13T16:09:41;17.60;70.30
61591;DHT22;71994;52.410;-1.966;2023-10-13T16:12:50;17.60;70.40
61591;DHT22;71994;52.410;-1.966;2023-10-13T16:15:57;17.60;70.30
61591;DHT22;71994;52.410;-1.966;2023-10-13T16:19:04;17.60;70.30
61591;DHT22;71994;52.410;-1.966;2023-10-13T16:22:10;17.60;70.40
61591;DHT22;71994;52.410;-1.966;2023-10-13T16:25:16;17.60;70.30
61591;DHT22;71994;52.410;-1.966;2023-10-13T16:28:27;17.60;70.40
61591;DHT22;71994;52.410;-1.966;2023-10-13T16:31:37;17.60;70.40
61591;DHT22;71994;52.410;-1.966;2023-10-13T16:34:49;17.60;70.50
61591;DHT22;71994;52.410;-1.966;2023-10-13T16:37:56;17.60;70.40
61591;DHT22;71994;52.410;-1.966;2023-10-13T16:41:02;17.60;70.50
61591;DHT22;71994;52.410;-1.966;2023-10-13T16:44:14;17.60;70.80
61591;DHT22;71994;52.410;-1.966;2023-10-13T16:47:20;17.70;70.30
61591;DHT22;71994;52.410;-1.966;2023-10-13T16:50:27;17.70;70.30
61591;DHT22;71994;52.410;-1.966;2023-10-13T16:53:38;17.70;70.30
61591;DHT22;71994;52.410;-1.966;2023-10-13T16:56:45;17.70;70.20
61591;DHT22;71994;52.410;-1.966;2023-10-13T16:59:57;17.60;70.20
61591;DHT22;71994;52.410;-1.966;2023-10-13T17:03:07;17.60;70.10
61591;DHT22;71994;52.410;-1.966;2023-10-13T17:06:15;17.70;69.90
61591;DHT22;71994;52.410;-1.966;2023-10-13T17:09:21;17.60;70.00
61591;DHT22;71994;52.410;-1.966;2023-10-13T17:12:28;17.70;69.90
61591;DHT22;71994;52.410;-1.966;2023-10-13T17:15:39;17.70;69.90
61591;DHT22;71994;52.410;-1.966;2023-10-13T17:18:46;17.60;69.80
61591;DHT22;71994;52.410;-1.966;2023-10-13T17:21:54;17.70;69.80
61591;DHT22;71994;52.410;-1.966;2023-10-13T17:25:01;17.70;69.80
61591;DHT22;71994;52.410;-1.966;2023-10-13T17:28:07;17.60;69.70
61591;DHT22;71994;52.410;-1.966;2023-10-13T17:31:21;17.60;70.00
61591;DHT22;71994;52.410;-1.966;2023-10-13T17:34:32;17.60;70.00
61591;DHT22;71994;52.410;-1.966;2023-10-13T17:37:39;17.60;70.10
61591;DHT22;71994;52.410;-1.966;2023-10-13T17:40:46;17.60;70.00
61591;DHT22;71994;52.410;-1.966;2023-10-13T17:43:52;17.70;70.10
61591;DHT22;71994;52.410;-1.966;2023-10-13T17:47:02;17.60;69.90
61591;DHT22;71994;52.410;-1.966;2023-10-13T17:50:13;17.60;69.80
61591;DHT22;71994;52.410;-1.966;2023-10-13T17:53:19;17.60;69.80
61591;DHT22;71994;52.410;-1.966;2023-10-13T17:56:26;17.60;69.80
61591;DHT22;71994;52.410;-1.966;2023-10-13T17:59:34;17.50;69.80
61591;DHT22;71994;52.410;-1.966;2023-10-13T18:02:45;17.50;69.70
61591;DHT22;71994;52.410;-1.966;2023-10-13T18:06:01;17.40;69.80
61591;DHT22;71994;52.410;-1.966;2023-10-13T18:09:08;17.40;69.80
61591;DHT22;71994;52.410;-1.966;2023-10-13T18:12:14;17.40;69.80
61591;DHT22;71994;52.410;-1.966;2023-10-13T18:15:21;17.40;69.80
61591;DHT22;71994;52.410;-1.966;2023-10-13T18:18:33;17.40;69.60
61591;DHT22;71994;52.410;-1.966;2023-10-13T18:21:42;17.40;69.60
61591;DHT22;71994;52.410;-1.966;2023-10-13T18:24:49;17.30;69.60
61591;DHT22;71994;52.410;-1.966;2023-10-13T18:27:55;17.30;69.50
61591;DHT22;71994;52.410;-1.966;2023-10-13T18:31:07;17.30;69.50
61591;DHT22;71994;52.410;-1.966;2023-10-13T18:34:19;17.30;69.50
61591;DHT22;71994;52.410;-1.966;2023-10-13T18:37:26;17.30;69.50
61591;DHT22;71994;52.410;-1.966;2023-10-13T18:40:33;17.30;69.40
61591;DHT22;71994;52.410;-1.966;2023-10-13T18:43:40;17.30;69.40
61591;DHT22;71994;52.410;-1.966;2023-10-13T18:46:46;17.30;69.40
61591;DHT22;71994;52.410;-1.966;2023-10-13T18:49:55;17.20;69.40
61591;DHT22;71994;52.410;-1.966;2023-10-13T18:53:02;17.20;69.30
61591;DHT22;71994;52.410;-1.966;2023-10-13T18:56:10;17.20;69.20
61591;DHT22;71994;52.410;-1.966;2023-10-13T18:59:16;17.20;69.20
61591;DHT22;71994;52.410;-1.966;2023-10-13T19:02:23;17.20;69.20
61591;DHT22;71994;52.410;-1.966;2023-10-13T19:05:36;17.20;69.10
61591;DHT22;71994;52.410;-1.966;2023-10-13T19:08:47;17.20;69.00
61591;DHT22;71994;52.410;-1.966;2023-10-13T19:11:57;17.10;69.00
61591;DHT22;71994;52.410;-1.966;2023-10-13T19:15:05;17.10;69.00
61591;DHT22;71994;52.410;-1.966;2023-10-13T19:18:12;17.10;69.00
61591;DHT22;71994;52.410;-1.966;2023-10-13T19:21:21;17.10;69.00
61591;DHT22;71994;52.410;-1.966;2023-10-13T19:24:27;17.10;69.00
61591;DHT22;71994;52.410;-1.966;2023-10-13T19:27:36;17.10;69.00
61591;DHT22;71994;52.410;-1.966;2023-10-13T19:30:45;17.10;68.90
61591;DHT22;71994;52.410;-1.966;2023-10-13T19:33:52;17.10;68.90
61591;DHT22;71994;52.410;-1.966;2023-10-13T19:37:01;17.10;68.90
61591;DHT22;71994;52.410;-1.966;2023-10-13T19:40:11;17.10;68.80
61591;DHT22;71994;52.410;-1.966;2023-10-13T19:43:17;17.10;68.80
61591;DHT22;71994;52.410;-1.966;2023-10-13T19:46:27;17.10;68.80
61591;DHT22;71994;52.410;-1.966;2023-10-13T19:49:33;17.10;68.70
61591;DHT22;71994;52.410;-1.966;2023-10-13T19:52:43;17.10;68.70
61591;DHT22;71994;52.410;-1.966;2023-10-13T19:55:49;17.10;68.70